METAR Data
IDs: Format: Raw Decoded Include TAF

Data at: 2106 UTC 18 Apr 2021

EBFN 182055Z AUTO 36004KT 9999 BKN013/// 06/04 Q1024 GRN